Saint Helena, CA

11:54 PM PDT on September 04, 2015 (GMT -0700)
St Helena - Meadowood Ln | | Change Station
CLOSE
Current Station
Personal Weather Station
Location: Saint Helena, CA
Elevation: 276 ft
Nearby Weather Stations

Elev 276 ft 38.52 °N, 122.46 °W | Updated 10 minutes ago

Clear
Clear
60.0 °F
Feels Like 60.0 °F
N
0.0
Wind Variable Wind from WNW
Gusts 2.0 mph

Today
High -- | Low -- °F
--% Chance of Precip.
Yesterday
High -- | Low -- °F
Precip. -- in
6:41 AM 7:35 PM
Waning Gibbous, 51% visible
Pressure 29.85 in
Visibility 10.0 miles
Clouds Clear
Dew Point 44 °F
Humidity 57%
Rainfall 0.00 in
Snow Depth Not available.
UV 0 out of 12
Pollen 8.90 out of 12
Air Quality Not available.
Flu Activity Not available.
METAR KSTS 050553Z AUTO 33009KT 10SM CLR 17/07 A2986 RMK AO2 SLP107 T01670067 10283 20167 51017
Pressure 29.85 in
Visibility 10.0 miles
Clouds Clear
Dew Point 44 °F
Humidity 57%
Rainfall 0.00 in
Snow Depth Not available.
UV 0 out of 12
Pollen 8.90 out of 12
Air Quality Not available.
Flu Activity Not available.
METAR KSTS 050553Z AUTO 33009KT 10SM CLR 17/07 A2986 RMK AO2 SLP107 T01670067 10283 20167 51017

10-Day Weather Forecast

×

Almanac

Astronomy

Sep. 04, 2015 Rise Set
Actual Time
Civil Twilight
Nautical Twilight
Astronomical Twilight
Moon
Length of Visible Light
Length of Day
Tomorrow will be .
, % of the Moon is Illuminated

Today's Extremes

State Highs State Lows

Community

WunderPhotos

Upload Photos

1,852,430 photos uploaded!

WunderBlogs® & News

Nearby

Air Quality

  Air Quality AQ Index Pollutant
Not available.

Snow Depth

Station Depth Elevation

Earthquake Activity

City Distance Mag. Time & Date
Minimum magnitude displayed is 2.5.

Coastal Water Temperatures

Place Temperature

Stations

Nearby Weather Stations

Station Location Temp. Windchill Dew Point Humidity Wind Precip. Elev Updated Type